Time;durP1;ratioP1;P1;durP2;ratioP2;P2;SDS_P1;SDS_P2;PMS_P1;PMS_P2;Temp;Humidity;BMP_temperature;BMP_pressure;BME280_temperature;BME280_humidity;BME280_pressure;Samples;Min_cycle;Max_cycle;Signal;HPM_P1;HPM_P2
2022/03/21 00:00:49;;;;;;;12.00;6.90;;;;;;;;;;5136137;27;20695;-81
2022/03/21 00:03:19;;;;;;;12.13;7.67;;;;;;;;;;5136514;27;20624;-81
2022/03/21 00:05:47;;;;;;;12.87;7.47;;;;;;;;;;5136428;27;20301;-81
2022/03/21 00:08:15;;;;;;;10.47;7.10;;;;;;;;;;5135944;27;20237;-81
2022/03/21 00:10:43;;;;;;;9.07;6.40;;;;;;;;;;5135875;27;20734;-81
2022/03/21 00:13:14;;;;;;;10.97;7.53;;;;;;;;;;5136351;27;20198;-81
2022/03/21 00:15:41;;;;;;;8.90;7.20;;;;;;;;;;5135665;27;20187;-81
2022/03/21 00:18:08;;;;;;;9.90;6.63;;;;;;;;;;5136314;27;20571;-81
2022/03/21 00:20:37;;;;;;;13.30;7.33;;;;;;;;;;5135779;27;20282;-81
2022/03/21 00:23:05;;;;;;;8.87;6.90;;;;;;;;;;5136201;27;20206;-81
2022/03/21 00:25:32;;;;;;;8.70;7.10;;;;;;;;;;5135441;27;20289;-81
2022/03/21 00:28:00;;;;;;;9.50;6.80;;;;;;;;;;5136062;27;20277;-81
2022/03/21 00:30:28;;;;;;;8.23;6.73;;;;;;;;;;5135468;27;20229;-81
2022/03/21 00:32:55;;;;;;;12.80;6.90;;;;;;;;;;5135745;27;20582;-81
2022/03/21 00:35:23;;;;;;;10.73;6.90;;;;;;;;;;5135236;27;20187;-81
2022/03/21 00:37:52;;;;;;;9.57;7.37;;;;;;;;;;5135953;27;20194;-81
2022/03/21 00:40:19;;;;;;;8.83;6.40;;;;;;;;;;5135608;27;20203;-80
2022/03/21 00:42:48;;;;;;;9.57;7.07;;;;;;;;;;5135806;27;20198;-81
2022/03/21 00:45:17;;;;;;;12.70;7.77;;;;;;;;;;5135239;27;20249;-80
2022/03/21 00:47:45;;;;;;;10.27;7.37;;;;;;;;;;5135436;27;20247;-81
2022/03/21 00:50:14;;;;;;;12.07;7.97;;;;;;;;;;5135045;27;20215;-80
2022/03/21 00:52:42;;;;;;;11.43;7.57;;;;;;;;;;5135341;27;20233;-81
2022/03/21 00:55:12;;;;;;;9.03;7.43;;;;;;;;;;5133102;27;20238;-80
2022/03/21 00:57:40;;;;;;;8.33;6.07;;;;;;;;;;5134530;27;20251;-81
2022/03/21 01:00:09;;;;;;;9.90;7.00;;;;;;;;;;5134940;27;20658;-80
2022/03/21 01:02:37;;;;;;;12.00;7.53;;;;;;;;;;5135181;27;20289;-80
2022/03/21 01:05:05;;;;;;;10.13;7.97;;;;;;;;;;5134914;27;20237;-80
2022/03/21 01:07:32;;;;;;;10.33;8.30;;;;;;;;;;5135007;27;20577;-81
2022/03/21 01:09:59;;;;;;;11.97;7.27;;;;;;;;;;5134446;27;20223;-80
2022/03/21 01:12:28;;;;;;;11.57;8.60;;;;;;;;;;5134948;27;20285;-80
2022/03/21 01:14:56;;;;;;;9.13;8.23;;;;;;;;;;5134679;27;20195;-80
2022/03/21 01:17:23;;;;;;;9.87;8.10;;;;;;;;;;5134839;27;20194;-81
2022/03/21 01:19:50;;;;;;;10.37;8.10;;;;;;;;;;5134380;27;20251;-80
2022/03/21 01:22:17;;;;;;;9.93;7.47;;;;;;;;;;5134783;27;20220;-81
2022/03/21 01:24:45;;;;;;;11.50;8.17;;;;;;;;;;5134157;27;20713;-81
2022/03/21 01:27:12;;;;;;;10.33;7.77;;;;;;;;;;5134933;27;20226;-80
2022/03/21 01:29:41;;;;;;;12.17;7.93;;;;;;;;;;5134099;27;20763;-81
2022/03/21 01:32:09;;;;;;;14.37;8.50;;;;;;;;;;5134870;27;20661;-80
2022/03/21 01:34:36;;;;;;;10.70;8.30;;;;;;;;;;5134138;27;20226;-81
2022/03/21 01:37:03;;;;;;;8.60;6.97;;;;;;;;;;5134420;27;20195;-81
2022/03/21 01:39:31;;;;;;;10.83;8.03;;;;;;;;;;5133703;27;20229;-81
2022/03/21 01:41:58;;;;;;;13.90;9.57;;;;;;;;;;5134090;27;20285;-81
2022/03/21 01:44:25;;;;;;;10.23;7.90;;;;;;;;;;5134101;27;20686;-81
2022/03/21 01:46:54;;;;;;;12.33;8.20;;;;;;;;;;5134191;27;20205;-81
2022/03/21 01:49:21;;;;;;;10.03;8.07;;;;;;;;;;5133754;27;20774;-80
2022/03/21 01:51:49;;;;;;;13.43;9.83;;;;;;;;;;5134084;27;20224;-81
2022/03/21 01:57:00;;;;;;;14.27;9.97;;;;;;;;;;5134251;27;20178;-80
2022/03/21 01:59:30;;;;;;;29.00;12.63;;;;;;;;;;5133807;27;20202;-80
2022/03/21 02:01:58;;;;;;;20.70;12.97;;;;;;;;;;5133737;27;20190;-81
2022/03/21 02:04:25;;;;;;;12.33;9.33;;;;;;;;;;5133712;27;20190;-82
2022/03/21 02:06:53;;;;;;;11.63;9.00;;;;;;;;;;5133936;27;20667;-81
2022/03/21 02:09:20;;;;;;;14.00;10.20;;;;;;;;;;5133632;27;20309;-81
2022/03/21 02:11:47;;;;;;;16.47;10.53;;;;;;;;;;5353575;22;20232;-81
2022/03/21 02:14:15;;;;;;;11.80;9.23;;;;;;;;;;5052451;28;20201;-81
2022/03/21 02:16:42;;;;;;;20.90;13.33;;;;;;;;;;5052861;28;20288;-81
2022/03/21 02:19:19;;;;;;;20.90;9.77;;;;;;;;;;5052177;28;20281;-80
2022/03/21 02:21:52;;;;;;;14.80;10.07;;;;;;;;;;5052870;28;20273;-81
2022/03/21 02:24:27;;;;;;;14.40;10.87;;;;;;;;;;5052357;28;20304;-81
2022/03/21 02:26:58;;;;;;;21.70;12.73;;;;;;;;;;5052495;28;20193;-81
2022/03/21 02:29:26;;;;;;;13.17;9.53;;;;;;;;;;5052029;28;20206;-81
2022/03/21 02:31:55;;;;;;;12.53;8.90;;;;;;;;;;5052306;28;20198;-81
2022/03/21 02:34:25;;;;;;;18.63;11.63;;;;;;;;;;5052052;28;20198;-81
2022/03/21 02:36:54;;;;;;;19.50;10.40;;;;;;;;;;5052043;28;20240;-81
2022/03/21 02:39:22;;;;;;;13.87;10.47;;;;;;;;;;5052033;28;20288;-81
2022/03/21 02:41:49;;;;;;;11.30;9.20;;;;;;;;;;5052486;28;20190;-81
2022/03/21 02:44:18;;;;;;;10.70;8.80;;;;;;;;;;5051929;28;20288;-81
2022/03/21 02:46:45;;;;;;;11.93;8.03;;;;;;;;;;5051927;28;20285;-81
2022/03/21 02:49:13;;;;;;;9.50;8.07;;;;;;;;;;5051728;28;20769;-81
2022/03/21 02:51:41;;;;;;;10.90;8.07;;;;;;;;;;5051330;28;20238;-81
2022/03/21 02:54:09;;;;;;;11.17;9.33;;;;;;;;;;5052098;28;20634;-81
2022/03/21 02:56:37;;;;;;;13.67;8.97;;;;;;;;;;5051937;28;20200;-81
2022/03/21 02:59:04;;;;;;;12.53;8.20;;;;;;;;;;5051468;28;20281;-82
2022/03/21 03:01:33;;;;;;;14.90;11.20;;;;;;;;;;5052363;28;20368;-81
2022/03/21 03:04:01;;;;;;;13.83;9.63;;;;;;;;;;5051714;28;20284;-81
2022/03/21 03:06:28;;;;;;;14.83;9.83;;;;;;;;;;5052223;28;20202;-81
2022/03/21 03:08:56;;;;;;;14.47;10.20;;;;;;;;;;5051414;28;20205;-81
2022/03/21 03:11:23;;;;;;;11.70;9.27;;;;;;;;;;5051572;28;20287;-81
2022/03/21 03:13:50;;;;;;;14.73;10.77;;;;;;;;;;5051509;28;20202;-81
2022/03/21 03:16:17;;;;;;;11.63;9.90;;;;;;;;;;5051784;28;20204;-81
2022/03/21 03:18:46;;;;;;;15.13;10.23;;;;;;;;;;5051330;28;20244;-81
2022/03/21 03:21:15;;;;;;;24.87;17.20;;;;;;;;;;5051742;28;20764;-81
2022/03/21 03:23:43;;;;;;;15.47;10.63;;;;;;;;;;5051883;28;20229;-81
2022/03/21 03:26:10;;;;;;;10.23;8.70;;;;;;;;;;5051715;28;20201;-81
2022/03/21 03:28:38;;;;;;;11.30;9.30;;;;;;;;;;5051611;28;20201;-81
2022/03/21 03:31:06;;;;;;;10.77;8.33;;;;;;;;;;5051536;28;20673;-81
2022/03/21 03:33:33;;;;;;;13.97;11.10;;;;;;;;;;5051490;28;20208;-81
2022/03/21 03:36:02;;;;;;;10.73;8.43;;;;;;;;;;5051258;28;20288;-80
2022/03/21 03:38:29;;;;;;;16.60;9.77;;;;;;;;;;5051468;28;20198;-81
2022/03/21 03:40:57;;;;;;;32.00;17.97;;;;;;;;;;5051499;28;20276;-81
2022/03/21 03:43:25;;;;;;;41.83;21.43;;;;;;;;;;5051778;28;20201;-81
2022/03/21 03:45:54;;;;;;;32.63;19.07;;;;;;;;;;5051203;28;20305;-81
2022/03/21 03:48:21;;;;;;;23.67;14.77;;;;;;;;;;5051631;28;20210;-80
2022/03/21 03:50:49;;;;;;;19.93;13.60;;;;;;;;;;5051276;28;20253;-81
2022/03/21 03:53:18;;;;;;;12.80;10.07;;;;;;;;;;5051446;28;20232;-81
2022/03/21 03:55:45;;;;;;;13.00;9.57;;;;;;;;;;5051263;28;20209;-80
2022/03/21 03:58:13;;;;;;;13.83;11.00;;;;;;;;;;5051383;28;20304;-81
2022/03/21 04:00:40;;;;;;;14.57;9.67;;;;;;;;;;5051181;28;20233;-81
2022/03/21 04:05:52;;;;;;;18.53;10.73;;;;;;;;;;5055144;28;20660;-81
2022/03/21 04:08:20;;;;;;;13.50;8.47;;;;;;;;;;5055048;28;20602;-81
2022/03/21 04:10:48;;;;;;;11.27;8.50;;;;;;;;;;5055054;28;20221;-81
2022/03/21 04:13:15;;;;;;;12.43;8.93;;;;;;;;;;5054491;28;20312;-81
2022/03/21 04:15:42;;;;;;;20.07;14.10;;;;;;;;;;5054739;28;20288;-81
2022/03/21 04:18:09;;;;;;;12.90;9.37;;;;;;;;;;5055249;28;20634;-81
2022/03/21 04:20:39;;;;;;;10.63;8.40;;;;;;;;;;5054674;28;20673;-81
2022/03/21 04:23:07;;;;;;;12.77;8.60;;;;;;;;;;5052766;28;20645;-81
2022/03/21 04:25:36;;;;;;;12.70;8.17;;;;;;;;;;5052864;28;20198;-81
2022/03/21 04:28:08;;;;;;;22.43;16.40;;;;;;;;;;5053892;28;20857;-82
2022/03/21 04:30:36;;;;;;;15.17;12.07;;;;;;;;;;5053822;28;20276;-81
2022/03/21 04:33:03;;;;;;;19.73;11.03;;;;;;;;;;5053352;28;20645;-79
2022/03/21 04:35:30;;;;;;;23.13;16.53;;;;;;;;;;5053287;28;20662;-79
2022/03/21 04:37:58;;;;;;;13.07;10.93;;;;;;;;;;5053097;28;20298;-79
2022/03/21 04:40:25;;;;;;;12.47;11.03;;;;;;;;;;5053289;28;20263;-79
2022/03/21 04:42:54;;;;;;;15.37;9.37;;;;;;;;;;5053507;28;20276;-78
2022/03/21 04:45:21;;;;;;;14.43;10.97;;;;;;;;;;5053273;28;20194;-79
2022/03/21 04:47:58;;;;;;;;;;;;;;;;;;;;;
2022/03/21 04:50:26;;;;;;;10.83;7.87;;;;;;;;;;5001551;28;20715;-80
2022/03/21 04:52:53;;;;;;;12.70;7.87;;;;;;;;;;5052714;28;20770;-79
2022/03/21 04:55:20;;;;;;;10.47;7.83;;;;;;;;;;5052953;28;20212;-79
2022/03/21 04:57:47;;;;;;;13.10;8.63;;;;;;;;;;5052984;28;20200;-79
2022/03/21 05:00:17;;;;;;;8.83;7.50;;;;;;;;;;5052842;28;20642;-79
2022/03/21 05:02:44;;;;;;;11.83;8.33;;;;;;;;;;5052942;28;20308;-79
2022/03/21 05:05:11;;;;;;;11.87;8.73;;;;;;;;;;5052395;28;20198;-79
2022/03/21 05:07:42;;;;;;;9.67;7.43;;;;;;;;;;5052735;28;20284;-79
2022/03/21 05:10:11;;;;;;;12.10;7.93;;;;;;;;;;5052775;28;20229;-79
2022/03/21 05:12:38;;;;;;;9.83;7.67;;;;;;;;;;5049772;28;20240;-80
2022/03/21 05:15:07;;;;;;;13.00;7.53;;;;;;;;;;5052318;28;20202;-80
2022/03/21 05:17:36;;;;;;;58.40;41.10;;;;;;;;;;5051890;28;20201;-80
2022/03/21 05:20:08;;;;;;;34.60;25.57;;;;;;;;;;5052268;28;20200;-82
2022/03/21 05:22:35;;;;;;;20.17;14.67;;;;;;;;;;5052240;28;20186;-83
2022/03/21 05:36:02;;;;;;;9.80;7.40;;;;;;;;;;5052333;28;20188;-80
2022/03/21 05:38:31;;;;;;;9.30;7.00;;;;;;;;;;5053171;28;20285;-80
2022/03/21 05:41:01;;;;;;;8.50;7.17;;;;;;;;;;5053123;28;20284;-81
2022/03/21 05:43:28;;;;;;;13.43;8.80;;;;;;;;;;5053370;28;20209;-80
2022/03/21 05:45:56;;;;;;;11.43;7.30;;;;;;;;;;5052711;28;20578;-78
2022/03/21 05:51:09;;;;;;;8.07;6.23;;;;;;;;;;5053015;28;20205;-80
2022/03/21 05:53:38;;;;;;;10.87;7.43;;;;;;;;;;5052610;28;20233;-80
2022/03/21 05:56:05;;;;;;;7.53;5.73;;;;;;;;;;5053234;28;20625;-80
2022/03/21 05:58:32;;;;;;;11.70;6.73;;;;;;;;;;5053173;28;20281;-81
2022/03/21 06:01:00;;;;;;;8.17;6.67;;;;;;;;;;5052849;28;20285;-80
2022/03/21 06:03:28;;;;;;;8.00;7.07;;;;;;;;;;5052582;28;20289;-80
2022/03/21 06:05:57;;;;;;;8.40;6.37;;;;;;;;;;5052721;28;20756;-81
2022/03/21 06:08:25;;;;;;;7.63;6.50;;;;;;;;;;5052940;28;20592;-80
2022/03/21 06:11:03;;;;;;;13.83;7.23;;;;;;;;;;5052548;28;20222;-81
2022/03/21 06:13:32;;;;;;;8.07;7.13;;;;;;;;;;5052389;28;20182;-81
2022/03/21 06:16:03;;;;;;;7.13;6.43;;;;;;;;;;5052600;28;20206;-81
2022/03/21 06:18:32;;;;;;;8.70;6.53;;;;;;;;;;5053067;28;20274;-82
2022/03/21 06:20:59;;;;;;;9.87;7.63;;;;;;;;;;5052448;28;20198;-82
2022/03/21 06:23:27;;;;;;;8.37;7.33;;;;;;;;;;5052226;28;20760;-82
2022/03/21 06:25:54;;;;;;;7.73;6.50;;;;;;;;;;5052559;28;20636;-82
2022/03/21 06:28:22;;;;;;;7.17;6.07;;;;;;;;;;5052901;28;20197;-82
2022/03/21 06:30:51;;;;;;;8.80;6.53;;;;;;;;;;5052336;28;20317;-82
2022/03/21 06:33:18;;;;;;;7.00;5.53;;;;;;;;;;5052452;28;20200;-82
2022/03/21 06:35:48;;;;;;;8.20;5.90;;;;;;;;;;5052491;28;20230;-83
2022/03/21 06:38:15;;;;;;;6.23;5.40;;;;;;;;;;5052427;28;20205;-82
2022/03/21 06:40:43;;;;;;;7.47;6.03;;;;;;;;;;5052123;28;20284;-83
2022/03/21 06:43:10;;;;;;;9.70;6.47;;;;;;;;;;5051893;28;20204;-82
2022/03/21 06:45:38;;;;;;;6.87;6.17;;;;;;;;;;5051936;28;20194;-82
2022/03/21 06:48:05;;;;;;;12.40;8.87;;;;;;;;;;5052099;28;20296;-82
2022/03/21 06:50:33;;;;;;;9.53;6.80;;;;;;;;;;5052140;28;20297;-81
2022/03/21 06:53:02;;;;;;;16.17;11.43;;;;;;;;;;5051832;28;20201;-82
2022/03/21 06:55:30;;;;;;;7.27;6.57;;;;;;;;;;5052125;28;20281;-81
2022/03/21 06:57:57;;;;;;;12.30;9.40;;;;;;;;;;5051981;28;20202;-82
2022/03/21 07:00:24;;;;;;;22.00;10.10;;;;;;;;;;5052050;28;20198;-82
2022/03/21 07:02:51;;;;;;;19.67;10.37;;;;;;;;;;5051860;28;20289;-82
2022/03/21 07:05:19;;;;;;;34.70;18.67;;;;;;;;;;5051427;28;20747;-83
2022/03/21 07:07:47;;;;;;;23.63;11.50;;;;;;;;;;5051835;28;20288;-82
2022/03/21 07:10:15;;;;;;;9.23;7.23;;;;;;;;;;5052045;28;20198;-82
2022/03/21 07:12:42;;;;;;;13.10;9.77;;;;;;;;;;5051363;28;20321;-82
2022/03/21 07:15:10;;;;;;;14.03;9.53;;;;;;;;;;5051637;28;20641;-81
2022/03/21 07:17:37;;;;;;;17.43;12.60;;;;;;;;;;5051753;28;20745;-83
2022/03/21 07:20:05;;;;;;;11.73;9.80;;;;;;;;;;5051447;28;20280;-83
2022/03/21 07:22:32;;;;;;;7.37;5.83;;;;;;;;;;5051708;28;20289;-83
2022/03/21 07:24:59;;;;;;;11.97;8.90;;;;;;;;;;5051856;28;20280;-83
2022/03/21 07:27:28;;;;;;;11.20;7.13;;;;;;;;;;5051703;28;20643;-83
2022/03/21 07:29:55;;;;;;;20.27;12.30;;;;;;;;;;5051066;28;20241;-83
2022/03/21 07:32:22;;;;;;;8.73;5.70;;;;;;;;;;5051641;28;20725;-84
2022/03/21 07:34:50;;;;;;;7.57;5.90;;;;;;;;;;5051496;28;20224;-83
2022/03/21 07:37:17;;;;;;;11.40;6.60;;;;;;;;;;5052622;28;20202;-83
2022/03/21 07:39:47;;;;;;;8.70;7.03;;;;;;;;;;5054337;28;20732;-83
2022/03/21 07:42:16;;;;;;;5.80;5.33;;;;;;;;;;5055712;28;20217;-83
2022/03/21 07:47:29;;;;;;;6.27;5.43;;;;;;;;;;5055349;28;20649;-83
2022/03/21 07:49:57;;;;;;;6.93;5.20;;;;;;;;;;5055325;28;20198;-82
2022/03/21 07:52:24;;;;;;;9.27;4.77;;;;;;;;;;5055315;28;20228;-83
2022/03/21 07:54:54;;;;;;;4.80;4.40;;;;;;;;;;5055132;28;20293;-83
2022/03/21 07:57:21;;;;;;;5.10;4.27;;;;;;;;;;5055150;28;20229;-83
2022/03/21 07:59:50;;;;;;;9.63;7.47;;;;;;;;;;5055083;28;20289;-83
2022/03/21 08:02:19;;;;;;;8.23;6.30;;;;;;;;;;5055101;28;20204;-83
2022/03/21 08:04:47;;;;;;;5.87;4.43;;;;;;;;;;5055155;28;20673;-84
2022/03/21 08:07:14;;;;;;;6.57;5.07;;;;;;;;;;5054907;28;20202;-83
2022/03/21 08:09:42;;;;;;;6.87;5.23;;;;;;;;;;5054951;28;20192;-84
2022/03/21 08:12:10;;;;;;;7.83;5.93;;;;;;;;;;5054735;28;20234;-84
2022/03/21 08:14:38;;;;;;;6.10;4.90;;;;;;;;;;5054834;28;20682;-84
2022/03/21 08:17:07;;;;;;;7.37;4.87;;;;;;;;;;5054852;28;20205;-83
2022/03/21 08:19:35;;;;;;;8.10;5.07;;;;;;;;;;5054977;28;20297;-84
2022/03/21 08:22:04;;;;;;;4.50;4.10;;;;;;;;;;5054606;28;20201;-84
2022/03/21 08:24:34;;;;;;;6.17;5.33;;;;;;;;;;5054801;28;20216;-83
2022/03/21 08:27:02;;;;;;;6.63;5.03;;;;;;;;;;5055084;28;20265;-83
2022/03/21 08:29:29;;;;;;;6.50;5.30;;;;;;;;;;5054490;28;20193;-83
2022/03/21 08:31:57;;;;;;;7.97;4.97;;;;;;;;;;5054835;28;20232;-83
2022/03/21 08:34:25;;;;;;;6.60;6.00;;;;;;;;;;5054321;28;20954;-83
2022/03/21 08:36:53;;;;;;;5.80;4.70;;;;;;;;;;5054782;28;20275;-83
2022/03/21 08:39:20;;;;;;;5.60;5.10;;;;;;;;;;5054374;28;20293;-83
2022/03/21 08:41:47;;;;;;;5.30;4.80;;;;;;;;;;5054375;28;20315;-83
2022/03/21 08:44:14;;;;;;;5.23;4.77;;;;;;;;;;5054050;28;20204;-83
2022/03/21 08:46:42;;;;;;;19.10;11.53;;;;;;;;;;5054388;28;20296;-84
2022/03/21 08:49:27;;;;;;;6.83;5.80;;;;;;;;;;5052887;28;20292;-83
2022/03/21 08:51:57;;;;;;;5.90;4.60;;;;;;;;;;5054152;28;20216;-83
2022/03/21 08:54:24;;;;;;;6.03;4.77;;;;;;;;;;5053753;28;20205;-82
2022/03/21 08:56:51;;;;;;;4.47;4.07;;;;;;;;;;5054160;28;20289;-83
2022/03/21 08:59:19;;;;;;;5.43;4.20;;;;;;;;;;5054253;28;20238;-83
2022/03/21 09:01:47;;;;;;;5.50;4.90;;;;;;;;;;5054340;28;20620;-83
2022/03/21 09:04:14;;;;;;;5.13;4.47;;;;;;;;;;5053667;28;20288;-82
2022/03/21 09:06:41;;;;;;;6.10;5.27;;;;;;;;;;5054231;28;20309;-83
2022/03/21 09:09:10;;;;;;;11.77;7.93;;;;;;;;;;5053725;28;20237;-84
2022/03/21 09:11:38;;;;;;;8.30;6.30;;;;;;;;;;5053718;28;20244;-84
2022/03/21 09:14:07;;;;;;;6.70;5.63;;;;;;;;;;5053478;28;20202;-84
2022/03/21 09:16:34;;;;;;;12.40;8.40;;;;;;;;;;5053735;28;20289;-84
2022/03/21 09:19:01;;;;;;;11.83;7.83;;;;;;;;;;5053616;28;20205;-83
2022/03/21 09:21:28;;;;;;;8.20;6.07;;;;;;;;;;5053769;28;20208;-83
2022/03/21 09:23:56;;;;;;;5.30;4.17;;;;;;;;;;5053432;28;20738;-83
2022/03/21 09:26:25;;;;;;;6.57;5.23;;;;;;;;;;5053616;28;20292;-83
2022/03/21 09:28:59;;;;;;;4.93;4.23;;;;;;;;;;5053741;28;20642;-84
2022/03/21 09:31:27;;;;;;;4.97;4.23;;;;;;;;;;5053451;28;20665;-83
2022/03/21 09:33:54;;;;;;;5.40;4.93;;;;;;;;;;5053149;28;20293;-83
2022/03/21 09:36:21;;;;;;;5.80;5.13;;;;;;;;;;5053656;28;20297;-84
2022/03/21 09:38:49;;;;;;;4.87;4.37;;;;;;;;;;5053178;28;20293;-83
2022/03/21 09:41:22;;;;;;;6.00;4.30;;;;;;;;;;5053075;28;20645;-83
2022/03/21 09:43:52;;;;;;;6.87;5.47;;;;;;;;;;5053116;28;20278;-83
2022/03/21 09:46:20;;;;;;;5.37;4.77;;;;;;;;;;5053628;28;20255;-83
2022/03/21 09:48:48;;;;;;;8.57;4.67;;;;;;;;;;5052967;28;20202;-83
2022/03/21 09:51:15;;;;;;;5.13;4.00;;;;;;;;;;5053537;28;20292;-84
2022/03/21 09:53:42;;;;;;;4.77;4.23;;;;;;;;;;5052657;28;20236;-83
2022/03/21 09:56:10;;;;;;;7.80;5.17;;;;;;;;;;5053044;28;20289;-83
2022/03/21 09:58:37;;;;;;;9.57;4.83;;;;;;;;;;5052858;28;20205;-83
2022/03/21 10:01:05;;;;;;;5.90;4.63;;;;;;;;;;5052605;28;20210;-82
2022/03/21 10:03:34;;;;;;;5.50;4.93;;;;;;;;;;5053043;28;20230;-82
2022/03/21 10:06:01;;;;;;;4.03;3.60;;;;;;;;;;5052822;28;20723;-82
2022/03/21 10:08:30;;;;;;;8.57;5.87;;;;;;;;;;5052732;28;20190;-82
2022/03/21 10:10:59;;;;;;;4.20;3.80;;;;;;;;;;5052833;28;20291;-83
2022/03/21 10:13:27;;;;;;;5.73;4.47;;;;;;;;;;5052351;28;20324;-83
2022/03/21 10:16:10;;;;;;;5.30;4.53;;;;;;;;;;5052593;28;20662;-83
2022/03/21 10:18:39;;;;;;;6.50;4.67;;;;;;;;;;5052510;28;20240;-83
2022/03/21 10:21:14;;;;;;;6.17;5.43;;;;;;;;;;5052296;28;20297;-83
2022/03/21 10:23:41;;;;;;;5.73;4.80;;;;;;;;;;5052341;28;20662;-83
2022/03/21 10:26:26;;;;;;;4.30;3.80;;;;;;;;;;5052448;28;20744;-83
2022/03/21 10:28:55;;;;;;;5.03;4.43;;;;;;;;;;5052300;28;20209;-83
2022/03/21 10:31:39;;;;;;;5.07;4.20;;;;;;;;;;5052253;28;20674;-83
2022/03/21 10:34:07;;;;;;;5.60;5.10;;;;;;;;;;5050518;28;20233;-84
2022/03/21 10:36:35;;;;;;;5.50;5.00;;;;;;;;;;5052376;28;20194;-83
2022/03/21 10:39:10;;;;;;;4.87;4.47;;;;;;;;;;5052090;28;20193;-83
2022/03/21 10:41:40;;;;;;;5.13;4.00;;;;;;;;;;5052213;28;20650;-83
2022/03/21 10:44:08;;;;;;;4.60;4.20;;;;;;;;;;5051814;28;20208;-83
2022/03/21 10:46:36;;;;;;;4.70;4.10;;;;;;;;;;5052134;28;20292;-83
2022/03/21 10:49:07;;;;;;;4.50;3.80;;;;;;;;;;5051933;28;20607;-82
2022/03/21 10:51:51;;;;;;;5.53;4.37;;;;;;;;;;5051905;28;20204;-82
2022/03/21 10:54:42;;;;;;;5.13;4.50;;;;;;;;;;5051869;28;20197;-82
2022/03/21 10:57:24;;;;;;;4.37;3.97;;;;;;;;;;5052268;28;20196;-83
2022/03/21 10:59:52;;;;;;;5.13;4.63;;;;;;;;;;5051810;28;20260;-82
2022/03/21 11:02:19;;;;;;;5.17;4.67;;;;;;;;;;5051903;28;20209;-84
2022/03/21 11:04:50;;;;;;;5.37;4.87;;;;;;;;;;5052180;28;20193;-84
2022/03/21 11:07:17;;;;;;;5.40;4.90;;;;;;;;;;5052174;28;20269;-83
2022/03/21 11:09:44;;;;;;;7.87;6.47;;;;;;;;;;5051619;28;20186;-83
2022/03/21 11:12:12;;;;;;;5.43;4.93;;;;;;;;;;5050856;28;20715;-84
2022/03/21 11:14:42;;;;;;;5.23;4.37;;;;;;;;;;5051659;28;20284;-83
2022/03/21 11:17:09;;;;;;;8.67;6.70;;;;;;;;;;5051563;28;20226;-83
2022/03/21 11:19:36;;;;;;;6.67;5.37;;;;;;;;;;5051572;28;20296;-82
2022/03/21 11:22:05;;;;;;;5.47;4.97;;;;;;;;;;5051754;28;20289;-83
2022/03/21 11:24:34;;;;;;;6.93;5.13;;;;;;;;;;5051840;28;20281;-82
2022/03/21 11:27:22;;;;;;;6.57;5.37;;;;;;;;;;5051412;28;20677;-83
2022/03/21 11:29:59;;;;;;;8.50;5.20;;;;;;;;;;5051840;28;20639;-84
2022/03/21 11:32:33;;;;;;;6.40;5.60;;;;;;;;;;5051633;28;20583;-83
2022/03/21 11:35:07;;;;;;;5.43;4.93;;;;;;;;;;5051465;28;20268;-83
2022/03/21 11:37:37;;;;;;;5.73;5.23;;;;;;;;;;5051705;28;20717;-84
2022/03/21 11:40:26;;;;;;;4.83;4.33;;;;;;;;;;5051381;28;20202;-83
2022/03/21 11:42:54;;;;;;;5.47;4.97;;;;;;;;;;5051595;28;20233;-83
2022/03/21 11:45:23;;;;;;;5.80;5.23;;;;;;;;;;5051599;28;20555;-82
2022/03/21 11:47:50;;;;;;;7.27;4.70;;;;;;;;;;5051326;28;20194;-83
2022/03/21 11:50:28;;;;;;;6.60;5.60;;;;;;;;;;5051497;28;20222;-84
2022/03/21 11:53:11;;;;;;;6.80;5.90;;;;;;;;;;5051437;28;20257;-84
2022/03/21 11:55:40;;;;;;;6.17;5.17;;;;;;;;;;5049410;28;20237;-84
2022/03/21 11:58:44;;;;;;;7.50;5.13;;;;;;;;;;5051250;28;20217;-83
2022/03/21 12:01:13;;;;;;;6.20;5.10;;;;;;;;;;5051409;28;20575;-83
2022/03/21 12:03:43;;;;;;;8.10;6.10;;;;;;;;;;5051533;28;20628;-83
2022/03/21 12:06:24;;;;;;;6.13;5.30;;;;;;;;;;5051276;28;20222;-84
2022/03/21 12:08:59;;;;;;;9.77;5.33;;;;;;;;;;5051015;28;20194;-84
2022/03/21 12:12:05;;;;;;;6.63;5.93;;;;;;;;;;5051411;28;20618;-83
2022/03/21 12:14:44;;;;;;;5.97;5.33;;;;;;;;;;5051089;28;20281;-84
2022/03/21 12:17:29;;;;;;;4.87;4.47;;;;;;;;;;5051057;28;20225;-83
2022/03/21 12:20:14;;;;;;;6.00;5.27;;;;;;;;;;5051358;28;20182;-83
2022/03/21 12:22:46;;;;;;;6.03;5.43;;;;;;;;;;5052147;28;20233;-84
2022/03/21 12:25:18;;;;;;;6.47;5.27;;;;;;;;;;5054921;28;20208;-84
2022/03/21 12:27:46;;;;;;;6.23;5.40;;;;;;;;;;5054654;28;20251;-84
2022/03/21 12:30:32;;;;;;;14.47;10.33;;;;;;;;;;5054553;28;20194;-84
2022/03/21 12:33:22;;;;;;;7.50;5.43;;;;;;;;;;5054427;28;20218;-84
2022/03/21 12:36:05;;;;;;;8.40;6.70;;;;;;;;;;5041560;28;20288;-84
2022/03/21 12:38:36;;;;;;;8.67;5.87;;;;;;;;;;5054485;28;20216;-84
2022/03/21 12:41:08;;;;;;;6.73;5.90;;;;;;;;;;5054713;28;20244;-84
2022/03/21 12:43:47;;;;;;;9.47;7.30;;;;;;;;;;5054671;28;20208;-83
2022/03/21 12:46:16;;;;;;;9.80;8.80;;;;;;;;;;5054435;28;20313;-84
2022/03/21 12:48:45;;;;;;;7.83;6.67;;;;;;;;;;5054005;28;20202;-84
2022/03/21 12:51:15;;;;;;;5.90;5.30;;;;;;;;;;5054632;28;20194;-84
2022/03/21 12:53:44;;;;;;;8.20;6.37;;;;;;;;;;5054302;28;20328;-84
2022/03/21 12:56:14;;;;;;;11.03;7.10;;;;;;;;;;5054249;28;20635;-84
2022/03/21 12:58:45;;;;;;;8.53;6.90;;;;;;;;;;5053988;28;20204;-83
2022/03/21 13:01:13;;;;;;;8.57;6.33;;;;;;;;;;5054134;28;20187;-84
2022/03/21 13:03:40;;;;;;;8.47;6.67;;;;;;;;;;5053678;28;20284;-83
2022/03/21 13:11:40;;;;;;;5.93;5.33;;;;;;;;;;5053862;28;20264;-84
2022/03/21 13:14:13;;;;;;;7.53;6.67;;;;;;;;;;5053626;28;20253;-84
2022/03/21 13:16:48;;;;;;;7.67;5.77;;;;;;;;;;5054100;28;20190;-83
2022/03/21 13:19:17;;;;;;;6.13;5.30;;;;;;;;;;5053680;28;20259;-83
2022/03/21 13:21:44;;;;;;;6.10;4.53;;;;;;;;;;5053979;28;20581;-84
2022/03/21 13:24:12;;;;;;;5.63;5.13;;;;;;;;;;5053350;28;20193;-83
2022/03/21 13:26:44;;;;;;;6.47;5.20;;;;;;;;;;5053789;28;20268;-84
2022/03/21 13:29:13;;;;;;;6.03;5.40;;;;;;;;;;5053497;28;20229;-83
2022/03/21 13:31:41;;;;;;;8.37;6.47;;;;;;;;;;5053512;28;20190;-84
2022/03/21 13:34:12;;;;;;;8.50;7.50;;;;;;;;;;5052581;28;20232;-84
2022/03/21 13:36:43;;;;;;;8.00;6.57;;;;;;;;;;5053525;28;20178;-83
2022/03/21 13:39:15;;;;;;;9.60;5.60;;;;;;;;;;5053318;28;20237;-83
2022/03/21 13:41:55;;;;;;;7.50;6.77;;;;;;;;;;5053397;28;20197;-83
2022/03/21 13:44:24;;;;;;;13.07;6.50;;;;;;;;;;5053172;28;20196;-83
2022/03/21 13:47:06;;;;;;;7.07;5.70;;;;;;;;;;5053290;28;20277;-83
2022/03/21 13:49:44;;;;;;;6.97;6.10;;;;;;;;;;5053420;28;20285;-85
2022/03/21 13:52:11;;;;;;;5.57;4.77;;;;;;;;;;5053107;28;20284;-83
2022/03/21 13:54:52;;;;;;;6.90;5.87;;;;;;;;;;5052687;28;20221;-83
2022/03/21 13:57:22;;;;;;;6.77;5.37;;;;;;;;;;5053080;28;20191;-85
2022/03/21 14:00:10;;;;;;;5.87;5.33;;;;;;;;;;5052815;28;20294;-83
2022/03/21 14:02:42;;;;;;;6.83;5.20;;;;;;;;;;5053032;28;20728;-83
2022/03/21 14:05:19;;;;;;;5.77;4.67;;;;;;;;;;5052429;28;20204;-83
2022/03/21 14:07:48;;;;;;;5.20;4.70;;;;;;;;;;5052960;28;20662;-83
2022/03/21 14:10:20;;;;;;;7.57;5.60;;;;;;;;;;5052613;28;20197;-84
2022/03/21 14:12:54;;;;;;;6.90;6.20;;;;;;;;;;5052377;28;20239;-83
2022/03/21 14:15:23;;;;;;;5.17;4.70;;;;;;;;;;5052313;28;20272;-83
2022/03/21 14:17:50;;;;;;;5.00;4.27;;;;;;;;;;5052690;28;20295;-83
2022/03/21 14:20:18;;;;;;;5.67;5.03;;;;;;;;;;5052749;28;20615;-83
2022/03/21 14:22:49;;;;;;;7.13;6.40;;;;;;;;;;5052785;28;20194;-83
2022/03/21 14:28:02;;;;;;;5.30;4.80;;;;;;;;;;5052948;28;20700;-84
2022/03/21 14:30:30;;;;;;;7.40;4.83;;;;;;;;;;5052225;28;20296;-83
2022/03/21 14:32:57;;;;;;;17.73;5.50;;;;;;;;;;5052198;28;20202;-83
2022/03/21 14:35:25;;;;;;;8.73;5.27;;;;;;;;;;5052033;28;20289;-84
2022/03/21 14:37:52;;;;;;;7.77;6.43;;;;;;;;;;5052295;28;20388;-84
2022/03/21 14:40:19;;;;;;;9.77;6.10;;;;;;;;;;5052176;28;20212;-83
2022/03/21 14:42:47;;;;;;;5.60;4.57;;;;;;;;;;5052585;28;20229;-83
2022/03/21 14:45:17;;;;;;;6.47;5.17;;;;;;;;;;5052064;28;20191;-84
2022/03/21 14:47:44;;;;;;;6.97;4.37;;;;;;;;;;5052456;28;20201;-84
2022/03/21 14:50:12;;;;;;;4.73;4.17;;;;;;;;;;5052061;28;20285;-84
2022/03/21 14:52:40;;;;;;;6.33;4.70;;;;;;;;;;5052341;28;20301;-83
2022/03/21 14:55:08;;;;;;;6.13;4.50;;;;;;;;;;5051856;28;20312;-83
2022/03/21 14:57:35;;;;;;;9.23;4.57;;;;;;;;;;5051798;28;20289;-83
2022/03/21 15:00:02;;;;;;;6.43;5.50;;;;;;;;;;5052173;28;20277;-83
2022/03/21 15:02:31;;;;;;;9.77;8.23;;;;;;;;;;5051913;28;20240;-84
2022/03/21 15:04:58;;;;;;;5.50;4.90;;;;;;;;;;5051762;28;20288;-84
2022/03/21 15:07:26;;;;;;;5.83;4.73;;;;;;;;;;5051675;28;20202;-83
2022/03/21 15:12:38;;;;;;;7.77;6.07;;;;;;;;;;5051716;28;20237;-83
2022/03/21 15:15:07;;;;;;;5.57;5.07;;;;;;;;;;5051439;28;20222;-83
2022/03/21 15:17:37;;;;;;;5.77;4.47;;;;;;;;;;5051807;28;20204;-83
2022/03/21 15:20:06;;;;;;;6.27;5.30;;;;;;;;;;5051684;28;20222;-83
2022/03/21 15:22:33;;;;;;;8.83;5.70;;;;;;;;;;5051747;28;20201;-83
2022/03/21 15:25:02;;;;;;;6.60;5.03;;;;;;;;;;5051286;28;20198;-83